Flight Track Log - Related Links

Times and Time Zones

All times are in EST time to prevent confusion due to time zone crossing. See the SWA172 flight status page for this flight to view local times or setup timezone preferences in your user account.

Time Position Orientation Groundspeed Altitude Reporting Facility
EST Latitude Longitude Course Direction KTS MPH feet Rate Location/Type
Tue 11:52:24 PM 33.8411 -118.5028 192° South 243 280 7,200  Level Los Angeles Center
Tue 11:53:25 PM 33.7661 -118.5136 187° South 265 305 10,200 2,146 Climbing Los Angeles Center
Tue 11:54:27 PM 33.6844 -118.4711 157° South 357 411 11,600 2,177 Climbing Los Angeles Center
Tue 11:55:29 PM 33.6450 -118.3411 110° East 384 442 14,700 2,585 Climbing Los Angeles Center
Tue 11:56:30 PM 33.6406 -118.2225 93° East 411 473 16,900 2,293 Climbing Los Angeles Center
Tue 11:57:32 PM 33.6361 -118.0528 92° East 425 489 19,400 2,081 Climbing Los Angeles Center
Tue 11:58:34 PM 33.6317 -117.9006 92° East 455 524 21,200 1,659 Climbing Los Angeles Center
Tue 11:59:35 PM 33.6264 -117.7369 92° East 487 560 22,800 1,721 Climbing Los Angeles Center
Wed 12:00:36 AM 33.6203 -117.5675 92° East 507 583 24,700 1,756 Climbing Los Angeles Center
Wed 12:01:38 AM 33.6150 -117.3931 92° East 522 601 26,400 1,790 Climbing Los Angeles Center
Wed 12:02:40 AM 33.6075 -117.2169 93° East 531 611 28,400 1,902 Climbing Los Angeles Center
Wed 12:03:41 AM 33.6019 -117.0417 92° East 529 609 30,300 1,854 Climbing Los Angeles Center
Wed 12:04:43 AM 33.5947 -116.8314 92° East 529 609 32,200 1,317 Climbing Los Angeles Center
Wed 12:05:44 AM 33.5875 -116.6472 93° East 532 612 33,000 390 Climbing Los Angeles Center
Wed 12:06:46 AM 33.5811 -116.4669 92° East 537 618 33,000  Level Los Angeles Center
Wed 12:07:47 AM 33.5731 -116.2889 93° East 534 615 33,000  Level Los Angeles Center
Wed 12:08:49 AM 33.5667 -116.1103 92° East 535 616 33,000 -49 Level Los Angeles Center
Wed 12:09:50 AM 33.5572 -115.9314 94° East 536 617 32,900  Descending Los Angeles Center
Wed 12:10:52 AM 33.5494 -115.7544 93° East 532 612 33,000 49 Climbing Los Angeles Center
Wed 12:11:53 AM 33.5419 -115.5789 93° East 527 606 33,000  Level Los Angeles Center
Wed 12:12:55 AM 33.5336 -115.4003 93° East 534 615 33,000  Level Los Angeles Center
Wed 12:13:56 AM 33.5247 -115.2225 93° East 534 615 33,000  Level Los Angeles Center
Wed 12:14:57 AM 33.5142 -115.0458 94° East 532 612 33,000  Level Los Angeles Center
Wed 12:15:59 AM 33.5028 -114.8317 94° East 537 618 33,000 -439 Level Los Angeles Center
Wed 12:17:00 AM 33.4947 -114.6542 93° East 536 617 32,100 -878 Descending Los Angeles Center
Wed 12:18:02 AM 33.4831 -114.4764 94° East 534 615 31,200 -2,049 Descending Los Angeles Center
Wed 12:19:03 AM 33.4744 -114.3022 93° East 526 605 27,900 -2,951 Descending Los Angeles Center
Wed 12:20:04 AM 33.4631 -114.1308 95° East 517 595 25,200 -1,343 Descending Los Angeles Center
Wed 12:21:17 AM 33.4425 -113.9222 97° East 490 564 24,900 -179 Descending Albuquerque Center
Wed 12:22:18 AM 33.4194 -113.7683 100° East 476 548 24,800 -49 Descending Albuquerque Center
Wed 12:23:19 AM 33.3969 -113.6131 100° East 473 544 24,800  Level Albuquerque Center
Wed 12:24:20 AM 33.3739 -113.4583 100° East 472 543 24,800 -942 Level Albuquerque Center
Wed 12:25:20 AM 33.3517 -113.3017 100° East 475 547 22,900 -2,132 Descending Albuquerque Center
Wed 12:26:21 AM 33.3306 -113.1528 100° East 461 531 20,500 -2,311 Descending Albuquerque Center
Wed 12:27:22 AM 33.3103 -113.0181 100° East 428 493 18,200 -2,033 Descending Albuquerque Center
Wed 12:28:22 AM 33.2908 -112.8936 101° East 396 456 16,400 -1,091 Descending Albuquerque Center
Wed 12:29:23 AM 33.2800 -112.7828 97° East 349 402 16,000 -197 Descending Albuquerque Center
Wed 12:30:24 AM 33.2831 -112.6669 88° East 343 395 16,000 -694 Level Albuquerque Center
Wed 12:31:24 AM 33.2875 -112.5358 88° East 375 432 14,600 -1,934 Descending Albuquerque Center
Wed 12:32:25 AM 33.2908 -112.4142 88° East 370 426 12,100 -2,033 Descending Albuquerque Center
Wed 12:33:25 AM 33.2964 -112.2972 87° East 357 411 10,500 -1,240 Descending Albuquerque Center
Wed 12:34:26 AM 33.3042 -112.1867 85° East 307 353 9,600 -738 Descending Albuquerque Center
Wed 12:35:27 AM 33.3106 -112.1058 85° East 274 315 9,000 -694 Descending Albuquerque Center
Wed 12:36:27 AM 33.3272 -112.0317 75° East 236 272 8,200 -942 Descending Albuquerque Center
Wed 12:37:28 AM 33.3442 -111.9614 74° East 221 254 7,100 -1,488 Descending Albuquerque Center
Wed 12:38:28 AM 33.3461 -111.8922 88° East 212 244 5,200 -1,785 Descending Albuquerque Center
Wed 12:39:29 AM 33.3808 -111.8331 55° Northeast 203 234 3,500 -1,082 Descending Albuquerque Center
Wed 12:40:30 AM 33.4136 -111.8586 327° Northwest 189 217 3,000 -564 Descending Albuquerque Center
Wed 12:41:26 AM 33.4333 -111.9167 292° West 155 178 2,400 -672 Descending Phoenix TRACON
Wed 12:42:26 AM 33.4333 -111.9667 270° West 135 155 1,700 -700 Descending Phoenix TRACON

Login

Don't have an account? Register now (free) for customized features, flight alerts, and more!